sensor_id;sensor_type;location;lat;lon;timestamp;temperature;humidity
15630;DHT22;7914;50.842;0.166;2022-07-23T00:00:18;16.30;99.90
15630;DHT22;7914;50.842;0.166;2022-07-23T00:02:44;16.20;99.90
15630;DHT22;7914;50.842;0.166;2022-07-23T00:05:10;16.20;99.90
15630;DHT22;7914;50.842;0.166;2022-07-23T00:07:37;16.20;99.90
15630;DHT22;7914;50.842;0.166;2022-07-23T00:10:04;16.20;99.90
15630;DHT22;7914;50.842;0.166;2022-07-23T00:12:30;16.20;99.90
15630;DHT22;7914;50.842;0.166;2022-07-23T00:14:55;16.10;99.90
15630;DHT22;7914;50.842;0.166;2022-07-23T00:17:21;16.10;99.90
15630;DHT22;7914;50.842;0.166;2022-07-23T00:19:47;16.00;99.90
15630;DHT22;7914;50.842;0.166;2022-07-23T00:22:13;16.00;99.90
15630;DHT22;7914;50.842;0.166;2022-07-23T00:24:39;16.00;99.90
15630;DHT22;7914;50.842;0.166;2022-07-23T00:27:04;16.00;99.90
15630;DHT22;7914;50.842;0.166;2022-07-23T00:29:30;16.00;99.90
15630;DHT22;7914;50.842;0.166;2022-07-23T00:31:56;16.00;99.90
15630;DHT22;7914;50.842;0.166;2022-07-23T00:34:22;16.00;99.90
15630;DHT22;7914;50.842;0.166;2022-07-23T00:36:48;16.00;99.90
15630;DHT22;7914;50.842;0.166;2022-07-23T00:39:13;15.90;99.90
15630;DHT22;7914;50.842;0.166;2022-07-23T00:41:39;15.90;99.90
15630;DHT22;7914;50.842;0.166;2022-07-23T00:44:16;15.80;99.90
15630;DHT22;7914;50.842;0.166;2022-07-23T00:46:46;15.80;99.90
15630;DHT22;7914;50.842;0.166;2022-07-23T00:49:12;15.80;99.90
15630;DHT22;7914;50.842;0.166;2022-07-23T00:51:38;15.70;99.90
15630;DHT22;7914;50.842;0.166;2022-07-23T00:54:04;15.70;99.90
15630;DHT22;7914;50.842;0.166;2022-07-23T00:56:30;15.60;99.90
15630;DHT22;7914;50.842;0.166;2022-07-23T00:58:57;15.70;99.90
15630;DHT22;7914;50.842;0.166;2022-07-23T01:01:23;15.60;99.90
15630;DHT22;7914;50.842;0.166;2022-07-23T01:03:48;15.60;99.90
15630;DHT22;7914;50.842;0.166;2022-07-23T01:06:14;15.50;99.90
15630;DHT22;7914;50.842;0.166;2022-07-23T01:08:40;15.50;99.90
15630;DHT22;7914;50.842;0.166;2022-07-23T01:11:07;15.50;99.90
15630;DHT22;7914;50.842;0.166;2022-07-23T01:13:33;15.40;99.90
15630;DHT22;7914;50.842;0.166;2022-07-23T01:15:59;15.40;99.90
15630;DHT22;7914;50.842;0.166;2022-07-23T01:18:25;15.40;99.90
15630;DHT22;7914;50.842;0.166;2022-07-23T01:20:51;15.40;99.90
15630;DHT22;7914;50.842;0.166;2022-07-23T01:23:17;15.40;99.90
15630;DHT22;7914;50.842;0.166;2022-07-23T01:26:03;15.40;99.90
15630;DHT22;7914;50.842;0.166;2022-07-23T01:28:28;15.30;99.90
15630;DHT22;7914;50.842;0.166;2022-07-23T01:30:54;15.30;99.90
15630;DHT22;7914;50.842;0.166;2022-07-23T01:33:20;15.40;99.90
15630;DHT22;7914;50.842;0.166;2022-07-23T01:35:46;15.40;99.90
15630;DHT22;7914;50.842;0.166;2022-07-23T01:38:11;15.50;99.90
15630;DHT22;7914;50.842;0.166;2022-07-23T01:40:37;15.60;99.90
15630;DHT22;7914;50.842;0.166;2022-07-23T01:43:03;15.60;99.90
15630;DHT22;7914;50.842;0.166;2022-07-23T01:45:29;15.70;99.90
15630;DHT22;7914;50.842;0.166;2022-07-23T01:47:54;15.70;99.90
15630;DHT22;7914;50.842;0.166;2022-07-23T01:50:20;15.80;99.90
15630;DHT22;7914;50.842;0.166;2022-07-23T01:52:46;15.80;99.90
15630;DHT22;7914;50.842;0.166;2022-07-23T01:55:12;15.90;99.90
15630;DHT22;7914;50.842;0.166;2022-07-23T01:57:37;15.90;99.90
15630;DHT22;7914;50.842;0.166;2022-07-23T02:00:04;15.90;99.90
15630;DHT22;7914;50.842;0.166;2022-07-23T02:02:30;16.00;99.90
15630;DHT22;7914;50.842;0.166;2022-07-23T02:04:55;16.00;99.90
15630;DHT22;7914;50.842;0.166;2022-07-23T02:07:21;16.00;99.90
15630;DHT22;7914;50.842;0.166;2022-07-23T02:09:47;16.00;99.90
15630;DHT22;7914;50.842;0.166;2022-07-23T02:12:13;15.90;99.90
15630;DHT22;7914;50.842;0.166;2022-07-23T02:14:39;16.00;99.90
15630;DHT22;7914;50.842;0.166;2022-07-23T02:17:05;16.00;99.90
15630;DHT22;7914;50.842;0.166;2022-07-23T02:19:30;15.90;99.90
15630;DHT22;7914;50.842;0.166;2022-07-23T02:21:56;16.00;99.90
15630;DHT22;7914;50.842;0.166;2022-07-23T02:24:22;16.00;99.90
15630;DHT22;7914;50.842;0.166;2022-07-23T02:26:47;16.00;99.90
15630;DHT22;7914;50.842;0.166;2022-07-23T02:29:13;16.00;99.90
15630;DHT22;7914;50.842;0.166;2022-07-23T02:31:39;16.00;99.90
15630;DHT22;7914;50.842;0.166;2022-07-23T02:34:05;16.00;99.90
15630;DHT22;7914;50.842;0.166;2022-07-23T02:36:31;16.10;99.90
15630;DHT22;7914;50.842;0.166;2022-07-23T02:38:57;16.10;99.90
15630;DHT22;7914;50.842;0.166;2022-07-23T02:41:23;16.00;99.90
15630;DHT22;7914;50.842;0.166;2022-07-23T02:43:49;16.00;99.90
15630;DHT22;7914;50.842;0.166;2022-07-23T02:46:14;15.90;99.90
15630;DHT22;7914;50.842;0.166;2022-07-23T02:48:40;16.00;99.90
15630;DHT22;7914;50.842;0.166;2022-07-23T02:51:06;15.90;99.90
15630;DHT22;7914;50.842;0.166;2022-07-23T02:53:32;16.00;99.90
15630;DHT22;7914;50.842;0.166;2022-07-23T02:55:57;16.00;99.90
15630;DHT22;7914;50.842;0.166;2022-07-23T02:58:23;15.90;99.90
15630;DHT22;7914;50.842;0.166;2022-07-23T03:00:50;15.80;99.90
15630;DHT22;7914;50.842;0.166;2022-07-23T03:03:16;15.90;99.90
15630;DHT22;7914;50.842;0.166;2022-07-23T03:05:41;15.90;99.90
15630;DHT22;7914;50.842;0.166;2022-07-23T03:08:07;15.80;99.90
15630;DHT22;7914;50.842;0.166;2022-07-23T03:10:33;15.70;99.90
15630;DHT22;7914;50.842;0.166;2022-07-23T03:12:59;15.80;99.90
15630;DHT22;7914;50.842;0.166;2022-07-23T03:15:24;15.80;99.90
15630;DHT22;7914;50.842;0.166;2022-07-23T03:17:50;15.80;99.90
15630;DHT22;7914;50.842;0.166;2022-07-23T03:20:16;15.70;99.90
15630;DHT22;7914;50.842;0.166;2022-07-23T03:22:42;15.60;99.90
15630;DHT22;7914;50.842;0.166;2022-07-23T03:25:08;15.50;99.90
15630;DHT22;7914;50.842;0.166;2022-07-23T03:27:34;15.50;99.90
15630;DHT22;7914;50.842;0.166;2022-07-23T03:30:00;15.50;99.90
15630;DHT22;7914;50.842;0.166;2022-07-23T03:32:26;15.40;99.90
15630;DHT22;7914;50.842;0.166;2022-07-23T03:34:52;15.40;99.90
15630;DHT22;7914;50.842;0.166;2022-07-23T03:37:19;15.50;99.90
15630;DHT22;7914;50.842;0.166;2022-07-23T03:39:45;15.50;99.90
15630;DHT22;7914;50.842;0.166;2022-07-23T03:42:10;15.50;99.90
15630;DHT22;7914;50.842;0.166;2022-07-23T03:44:36;15.50;99.90
15630;DHT22;7914;50.842;0.166;2022-07-23T03:47:03;15.50;99.90
15630;DHT22;7914;50.842;0.166;2022-07-23T03:49:29;15.50;99.90
15630;DHT22;7914;50.842;0.166;2022-07-23T03:51:55;15.50;99.90
15630;DHT22;7914;50.842;0.166;2022-07-23T03:54:20;15.50;99.90
15630;DHT22;7914;50.842;0.166;2022-07-23T03:56:46;15.50;99.90
15630;DHT22;7914;50.842;0.166;2022-07-23T03:59:12;15.50;99.90
15630;DHT22;7914;50.842;0.166;2022-07-23T04:01:38;15.50;99.90
15630;DHT22;7914;50.842;0.166;2022-07-23T04:04:03;15.50;99.90
15630;DHT22;7914;50.842;0.166;2022-07-23T04:06:29;15.40;99.90
15630;DHT22;7914;50.842;0.166;2022-07-23T04:08:55;15.30;99.90
15630;DHT22;7914;50.842;0.166;2022-07-23T04:11:21;15.30;99.90
15630;DHT22;7914;50.842;0.166;2022-07-23T04:13:47;15.30;99.90
15630;DHT22;7914;50.842;0.166;2022-07-23T04:16:12;15.20;99.90
15630;DHT22;7914;50.842;0.166;2022-07-23T04:18:38;15.20;99.90
15630;DHT22;7914;50.842;0.166;2022-07-23T04:21:04;15.10;99.90
15630;DHT22;7914;50.842;0.166;2022-07-23T04:23:30;15.20;99.90
15630;DHT22;7914;50.842;0.166;2022-07-23T04:25:55;15.20;99.90
15630;DHT22;7914;50.842;0.166;2022-07-23T04:28:21;15.20;99.90
15630;DHT22;7914;50.842;0.166;2022-07-23T04:30:47;15.20;99.90
15630;DHT22;7914;50.842;0.166;2022-07-23T04:33:13;15.10;99.90
15630;DHT22;7914;50.842;0.166;2022-07-23T04:35:39;15.20;99.90
15630;DHT22;7914;50.842;0.166;2022-07-23T04:38:05;15.10;99.90
15630;DHT22;7914;50.842;0.166;2022-07-23T04:40:31;15.10;99.90
15630;DHT22;7914;50.842;0.166;2022-07-23T04:42:57;15.00;99.90
15630;DHT22;7914;50.842;0.166;2022-07-23T04:45:23;15.00;99.90
15630;DHT22;7914;50.842;0.166;2022-07-23T04:47:51;15.00;99.90
15630;DHT22;7914;50.842;0.166;2022-07-23T04:50:17;15.20;99.90
15630;DHT22;7914;50.842;0.166;2022-07-23T04:52:47;15.20;99.90
15630;DHT22;7914;50.842;0.166;2022-07-23T04:55:13;15.20;99.90
15630;DHT22;7914;50.842;0.166;2022-07-23T04:57:39;15.30;99.90
15630;DHT22;7914;50.842;0.166;2022-07-23T05:00:05;15.30;99.90
15630;DHT22;7914;50.842;0.166;2022-07-23T05:02:31;15.40;99.90
15630;DHT22;7914;50.842;0.166;2022-07-23T05:04:57;15.50;99.90
15630;DHT22;7914;50.842;0.166;2022-07-23T05:07:23;15.60;99.90
15630;DHT22;7914;50.842;0.166;2022-07-23T05:09:49;15.60;99.90
15630;DHT22;7914;50.842;0.166;2022-07-23T05:12:15;15.80;99.90
15630;DHT22;7914;50.842;0.166;2022-07-23T05:14:41;16.00;99.90
15630;DHT22;7914;50.842;0.166;2022-07-23T05:17:07;16.20;99.90
15630;DHT22;7914;50.842;0.166;2022-07-23T05:19:34;16.50;99.90
15630;DHT22;7914;50.842;0.166;2022-07-23T05:22:00;16.70;99.90
15630;DHT22;7914;50.842;0.166;2022-07-23T05:24:26;16.90;99.90
15630;DHT22;7914;50.842;0.166;2022-07-23T05:26:52;17.10;99.90
15630;DHT22;7914;50.842;0.166;2022-07-23T05:29:18;17.50;99.90
15630;DHT22;7914;50.842;0.166;2022-07-23T05:31:44;17.90;99.90
15630;DHT22;7914;50.842;0.166;2022-07-23T05:34:10;18.30;99.90
15630;DHT22;7914;50.842;0.166;2022-07-23T05:36:35;19.00;99.90
15630;DHT22;7914;50.842;0.166;2022-07-23T05:39:02;19.30;99.90
15630;DHT22;7914;50.842;0.166;2022-07-23T05:41:28;19.80;99.90
15630;DHT22;7914;50.842;0.166;2022-07-23T05:43:54;19.90;99.90
15630;DHT22;7914;50.842;0.166;2022-07-23T05:46:19;19.80;99.90
15630;DHT22;7914;50.842;0.166;2022-07-23T05:48:45;19.50;99.90
15630;DHT22;7914;50.842;0.166;2022-07-23T05:51:24;19.60;99.90
15630;DHT22;7914;50.842;0.166;2022-07-23T05:53:51;19.80;99.90
15630;DHT22;7914;50.842;0.166;2022-07-23T05:56:18;19.90;99.90
15630;DHT22;7914;50.842;0.166;2022-07-23T05:58:44;20.10;99.90
15630;DHT22;7914;50.842;0.166;2022-07-23T06:01:10;20.10;99.90
15630;DHT22;7914;50.842;0.166;2022-07-23T06:03:37;20.30;99.90
15630;DHT22;7914;50.842;0.166;2022-07-23T06:06:04;20.50;99.90
15630;DHT22;7914;50.842;0.166;2022-07-23T06:08:29;20.60;99.90
15630;DHT22;7914;50.842;0.166;2022-07-23T06:10:55;20.50;99.90
15630;DHT22;7914;50.842;0.166;2022-07-23T06:13:21;20.30;99.90
15630;DHT22;7914;50.842;0.166;2022-07-23T06:15:47;20.00;99.90
15630;DHT22;7914;50.842;0.166;2022-07-23T06:18:12;19.90;99.90
15630;DHT22;7914;50.842;0.166;2022-07-23T06:20:39;19.90;99.90
15630;DHT22;7914;50.842;0.166;2022-07-23T06:23:05;19.90;99.90
15630;DHT22;7914;50.842;0.166;2022-07-23T06:25:31;19.90;99.90
15630;DHT22;7914;50.842;0.166;2022-07-23T06:27:56;19.80;99.90
15630;DHT22;7914;50.842;0.166;2022-07-23T06:30:22;19.90;99.90
15630;DHT22;7914;50.842;0.166;2022-07-23T06:32:49;20.10;99.90
15630;DHT22;7914;50.842;0.166;2022-07-23T06:35:16;20.20;99.90
15630;DHT22;7914;50.842;0.166;2022-07-23T06:37:42;20.60;99.90
15630;DHT22;7914;50.842;0.166;2022-07-23T06:40:08;20.90;99.90
15630;DHT22;7914;50.842;0.166;2022-07-23T06:42:34;21.00;99.90
15630;DHT22;7914;50.842;0.166;2022-07-23T06:45:03;20.70;99.90
15630;DHT22;7914;50.842;0.166;2022-07-23T06:47:29;20.80;99.90
15630;DHT22;7914;50.842;0.166;2022-07-23T06:49:55;20.90;99.90
15630;DHT22;7914;50.842;0.166;2022-07-23T06:52:21;20.90;99.90
15630;DHT22;7914;50.842;0.166;2022-07-23T06:54:46;20.90;99.90
15630;DHT22;7914;50.842;0.166;2022-07-23T06:57:12;21.00;99.90
15630;DHT22;7914;50.842;0.166;2022-07-23T06:59:38;21.50;99.90
15630;DHT22;7914;50.842;0.166;2022-07-23T07:02:06;22.00;99.90
15630;DHT22;7914;50.842;0.166;2022-07-23T07:04:32;22.30;99.90
15630;DHT22;7914;50.842;0.166;2022-07-23T07:06:58;22.30;80.60
15630;DHT22;7914;50.842;0.166;2022-07-23T07:09:23;22.20;97.70
15630;DHT22;7914;50.842;0.166;2022-07-23T07:11:49;22.40;99.90
15630;DHT22;7914;50.842;0.166;2022-07-23T07:14:15;22.60;73.30
15630;DHT22;7914;50.842;0.166;2022-07-23T07:16:41;22.70;91.40
15630;DHT22;7914;50.842;0.166;2022-07-23T07:19:06;22.90;58.20
15630;DHT22;7914;50.842;0.166;2022-07-23T07:21:32;23.00;34.70
15630;DHT22;7914;50.842;0.166;2022-07-23T07:23:58;23.30;52.60
15630;DHT22;7914;50.842;0.166;2022-07-23T07:26:24;23.50;37.40
15630;DHT22;7914;50.842;0.166;2022-07-23T07:28:49;23.90;25.00
15630;DHT22;7914;50.842;0.166;2022-07-23T07:31:15;23.90;6.30
15630;DHT22;7914;50.842;0.166;2022-07-23T07:33:41;23.90;9.60
15630;DHT22;7914;50.842;0.166;2022-07-23T07:36:07;23.90;21.90
15630;DHT22;7914;50.842;0.166;2022-07-23T07:38:33;23.70;9.20
15630;DHT22;7914;50.842;0.166;2022-07-23T07:40:58;23.60;25.20
15630;DHT22;7914;50.842;0.166;2022-07-23T07:43:24;23.40;8.70
15630;DHT22;7914;50.842;0.166;2022-07-23T07:45:50;23.70;1.30
15630;DHT22;7914;50.842;0.166;2022-07-23T07:48:15;24.20;1.00
15630;DHT22;7914;50.842;0.166;2022-07-23T07:50:41;24.40;1.00
15630;DHT22;7914;50.842;0.166;2022-07-23T07:53:07;24.40;1.00
15630;DHT22;7914;50.842;0.166;2022-07-23T07:55:34;24.40;1.00
15630;DHT22;7914;50.842;0.166;2022-07-23T07:58:00;24.60;1.00
15630;DHT22;7914;50.842;0.166;2022-07-23T08:00:26;24.80;1.00
15630;DHT22;7914;50.842;0.166;2022-07-23T08:02:53;25.00;1.00
15630;DHT22;7914;50.842;0.166;2022-07-23T08:05:24;25.10;1.00
15630;DHT22;7914;50.842;0.166;2022-07-23T08:07:50;25.00;1.00
15630;DHT22;7914;50.842;0.166;2022-07-23T08:10:16;25.00;1.00
15630;DHT22;7914;50.842;0.166;2022-07-23T08:12:53;25.10;1.00
15630;DHT22;7914;50.842;0.166;2022-07-23T08:15:20;24.80;1.00
15630;DHT22;7914;50.842;0.166;2022-07-23T08:17:47;24.70;1.00
15630;DHT22;7914;50.842;0.166;2022-07-23T08:20:14;24.80;1.00
15630;DHT22;7914;50.842;0.166;2022-07-23T08:25:12;25.00;1.00
15630;DHT22;7914;50.842;0.166;2022-07-23T08:27:39;24.70;1.00
15630;DHT22;7914;50.842;0.166;2022-07-23T08:30:05;24.80;1.00
15630;DHT22;7914;50.842;0.166;2022-07-23T08:32:31;24.70;1.00
15630;DHT22;7914;50.842;0.166;2022-07-23T08:34:57;24.80;1.00
15630;DHT22;7914;50.842;0.166;2022-07-23T08:37:22;24.90;1.00
15630;DHT22;7914;50.842;0.166;2022-07-23T08:39:48;25.10;1.00
15630;DHT22;7914;50.842;0.166;2022-07-23T08:42:14;24.90;1.00
15630;DHT22;7914;50.842;0.166;2022-07-23T08:44:44;24.90;1.00
15630;DHT22;7914;50.842;0.166;2022-07-23T08:47:11;24.50;1.00
15630;DHT22;7914;50.842;0.166;2022-07-23T08:49:38;24.40;1.00
15630;DHT22;7914;50.842;0.166;2022-07-23T08:52:05;24.40;1.00
15630;DHT22;7914;50.842;0.166;2022-07-23T08:54:31;24.90;1.00
15630;DHT22;7914;50.842;0.166;2022-07-23T08:56:57;25.20;1.00
15630;DHT22;7914;50.842;0.166;2022-07-23T08:59:23;25.30;1.00
15630;DHT22;7914;50.842;0.166;2022-07-23T09:01:49;25.30;1.00
15630;DHT22;7914;50.842;0.166;2022-07-23T09:04:14;24.80;1.00
15630;DHT22;7914;50.842;0.166;2022-07-23T09:06:40;24.60;1.00
15630;DHT22;7914;50.842;0.166;2022-07-23T09:09:20;24.70;1.00
15630;DHT22;7914;50.842;0.166;2022-07-23T09:11:47;24.90;1.00
15630;DHT22;7914;50.842;0.166;2022-07-23T09:14:12;25.40;1.00
15630;DHT22;7914;50.842;0.166;2022-07-23T09:16:38;25.80;1.00
15630;DHT22;7914;50.842;0.166;2022-07-23T09:19:06;26.10;1.00
15630;DHT22;7914;50.842;0.166;2022-07-23T09:21:33;26.50;1.00
15630;DHT22;7914;50.842;0.166;2022-07-23T09:24:03;26.80;1.00
15630;DHT22;7914;50.842;0.166;2022-07-23T09:26:36;27.00;1.00
15630;DHT22;7914;50.842;0.166;2022-07-23T09:29:06;27.00;1.00
15630;DHT22;7914;50.842;0.166;2022-07-23T09:31:56;27.00;1.00
15630;DHT22;7914;50.842;0.166;2022-07-23T09:34:36;27.00;1.00
15630;DHT22;7914;50.842;0.166;2022-07-23T09:37:12;27.10;1.00
15630;DHT22;7914;50.842;0.166;2022-07-23T09:39:39;27.20;1.00
15630;DHT22;7914;50.842;0.166;2022-07-23T09:42:19;27.20;1.00
15630;DHT22;7914;50.842;0.166;2022-07-23T09:44:47;27.30;1.00
15630;DHT22;7914;50.842;0.166;2022-07-23T09:47:14;27.30;1.00
15630;DHT22;7914;50.842;0.166;2022-07-23T09:49:40;27.00;1.00
15630;DHT22;7914;50.842;0.166;2022-07-23T09:52:06;27.00;1.00
15630;DHT22;7914;50.842;0.166;2022-07-23T09:57:13;27.00;1.00
15630;DHT22;7914;50.842;0.166;2022-07-23T09:59:42;26.90;1.00
15630;DHT22;7914;50.842;0.166;2022-07-23T10:02:10;26.90;1.00
15630;DHT22;7914;50.842;0.166;2022-07-23T10:04:38;26.90;1.00
15630;DHT22;7914;50.842;0.166;2022-07-23T10:07:06;26.90;1.00
15630;DHT22;7914;50.842;0.166;2022-07-23T10:09:40;27.00;1.00
15630;DHT22;7914;50.842;0.166;2022-07-23T10:12:14;26.90;1.00
15630;DHT22;7914;50.842;0.166;2022-07-23T10:14:51;27.00;1.00
15630;DHT22;7914;50.842;0.166;2022-07-23T10:17:17;27.10;1.00
15630;DHT22;7914;50.842;0.166;2022-07-23T10:19:44;27.00;1.00
15630;DHT22;7914;50.842;0.166;2022-07-23T10:22:18;27.00;1.00
15630;DHT22;7914;50.842;0.166;2022-07-23T10:38:33;27.30;1.00
15630;DHT22;7914;50.842;0.166;2022-07-23T10:41:05;27.40;1.00
15630;DHT22;7914;50.842;0.166;2022-07-23T10:43:31;27.50;1.00
15630;DHT22;7914;50.842;0.166;2022-07-23T10:46:30;27.30;1.00
15630;DHT22;7914;50.842;0.166;2022-07-23T10:49:25;27.30;1.00
15630;DHT22;7914;50.842;0.166;2022-07-23T10:54:42;27.30;1.00
15630;DHT22;7914;50.842;0.166;2022-07-23T10:57:09;27.30;1.00
15630;DHT22;7914;50.842;0.166;2022-07-23T11:02:26;27.30;1.00
15630;DHT22;7914;50.842;0.166;2022-07-23T11:04:53;27.00;1.00
15630;DHT22;7914;50.842;0.166;2022-07-23T11:07:19;27.30;1.00
15630;DHT22;7914;50.842;0.166;2022-07-23T11:09:45;27.40;1.00
15630;DHT22;7914;50.842;0.166;2022-07-23T11:18:16;27.40;1.00
15630;DHT22;7914;50.842;0.166;2022-07-23T11:20:19;27.40;1.00
15630;DHT22;7914;50.842;0.166;2022-07-23T11:25:13;27.40;1.00
15630;DHT22;7914;50.842;0.166;2022-07-23T11:27:42;27.30;1.00
15630;DHT22;7914;50.842;0.166;2022-07-23T11:30:10;27.30;1.00
15630;DHT22;7914;50.842;0.166;2022-07-23T11:32:40;27.30;1.00
15630;DHT22;7914;50.842;0.166;2022-07-23T11:35:27;27.30;1.00
15630;DHT22;7914;50.842;0.166;2022-07-23T11:38:04;27.30;1.00
15630;DHT22;7914;50.842;0.166;2022-07-23T11:40:30;27.20;1.00
15630;DHT22;7914;50.842;0.166;2022-07-23T11:43:04;27.00;1.00
15630;DHT22;7914;50.842;0.166;2022-07-23T11:45:41;27.00;1.00
15630;DHT22;7914;50.842;0.166;2022-07-23T11:48:09;26.60;1.00
15630;DHT22;7914;50.842;0.166;2022-07-23T11:50:36;26.70;1.00
15630;DHT22;7914;50.842;0.166;2022-07-23T11:53:03;26.70;1.00
15630;DHT22;7914;50.842;0.166;2022-07-23T11:55:29;26.70;1.00
15630;DHT22;7914;50.842;0.166;2022-07-23T11:57:56;26.60;1.00
15630;DHT22;7914;50.842;0.166;2022-07-23T12:00:24;26.60;1.00
15630;DHT22;7914;50.842;0.166;2022-07-23T12:03:01;26.70;1.00
15630;DHT22;7914;50.842;0.166;2022-07-23T12:05:33;26.70;1.00
15630;DHT22;7914;50.842;0.166;2022-07-23T12:08:00;26.80;1.00
15630;DHT22;7914;50.842;0.166;2022-07-23T12:13:02;26.50;1.00
15630;DHT22;7914;50.842;0.166;2022-07-23T12:15:31;26.40;1.00
15630;DHT22;7914;50.842;0.166;2022-07-23T12:17:59;26.20;1.00
15630;DHT22;7914;50.842;0.166;2022-07-23T12:20:30;26.00;1.00
15630;DHT22;7914;50.842;0.166;2022-07-23T12:22:59;26.10;1.00
15630;DHT22;7914;50.842;0.166;2022-07-23T12:25:28;26.00;99.90
15630;DHT22;7914;50.842;0.166;2022-07-23T12:28:05;26.00;99.90
15630;DHT22;7914;50.842;0.166;2022-07-23T12:30:44;26.00;99.90
15630;DHT22;7914;50.842;0.166;2022-07-23T12:33:13;26.10;99.90
15630;DHT22;7914;50.842;0.166;2022-07-23T12:35:45;26.00;99.90
15630;DHT22;7914;50.842;0.166;2022-07-23T12:38:14;25.90;99.90
15630;DHT22;7914;50.842;0.166;2022-07-23T12:48:33;25.80;1.00
15630;DHT22;7914;50.842;0.166;2022-07-23T12:51:06;25.70;99.90
15630;DHT22;7914;50.842;0.166;2022-07-23T12:53:38;25.60;99.90
15630;DHT22;7914;50.842;0.166;2022-07-23T12:56:07;25.40;99.90
15630;DHT22;7914;50.842;0.166;2022-07-23T13:01:39;25.30;99.90
15630;DHT22;7914;50.842;0.166;2022-07-23T13:04:28;25.30;99.90
15630;DHT22;7914;50.842;0.166;2022-07-23T13:06:58;25.30;99.90
15630;DHT22;7914;50.842;0.166;2022-07-23T13:09:31;25.30;99.90
15630;DHT22;7914;50.842;0.166;2022-07-23T13:11:57;25.10;99.90
15630;DHT22;7914;50.842;0.166;2022-07-23T13:14:24;25.20;99.90
15630;DHT22;7914;50.842;0.166;2022-07-23T13:16:51;25.20;99.90
15630;DHT22;7914;50.842;0.166;2022-07-23T13:19:17;25.10;99.90
15630;DHT22;7914;50.842;0.166;2022-07-23T13:21:44;25.10;8.60
15630;DHT22;7914;50.842;0.166;2022-07-23T13:24:11;24.70;1.00
15630;DHT22;7914;50.842;0.166;2022-07-23T13:26:37;24.60;1.00
15630;DHT22;7914;50.842;0.166;2022-07-23T13:29:04;24.60;1.00
15630;DHT22;7914;50.842;0.166;2022-07-23T13:31:30;24.40;1.00
15630;DHT22;7914;50.842;0.166;2022-07-23T13:33:56;24.10;1.00
15630;DHT22;7914;50.842;0.166;2022-07-23T13:36:21;24.10;1.00
15630;DHT22;7914;50.842;0.166;2022-07-23T13:38:47;24.20;1.00
15630;DHT22;7914;50.842;0.166;2022-07-23T13:41:13;24.30;1.00
15630;DHT22;7914;50.842;0.166;2022-07-23T13:43:41;24.30;1.00
15630;DHT22;7914;50.842;0.166;2022-07-23T13:46:07;24.30;1.00
15630;DHT22;7914;50.842;0.166;2022-07-23T13:48:33;24.30;91.20
15630;DHT22;7914;50.842;0.166;2022-07-23T13:50:59;24.20;1.00
15630;DHT22;7914;50.842;0.166;2022-07-23T13:53:25;24.30;1.00
15630;DHT22;7914;50.842;0.166;2022-07-23T13:55:52;24.00;1.00
15630;DHT22;7914;50.842;0.166;2022-07-23T13:58:18;23.10;1.00
15630;DHT22;7914;50.842;0.166;2022-07-23T14:00:47;23.20;69.60
15630;DHT22;7914;50.842;0.166;2022-07-23T14:03:14;23.30;1.00
15630;DHT22;7914;50.842;0.166;2022-07-23T14:05:40;23.50;85.20
15630;DHT22;7914;50.842;0.166;2022-07-23T14:08:07;23.60;1.00
15630;DHT22;7914;50.842;0.166;2022-07-23T14:10:33;23.80;1.00
15630;DHT22;7914;50.842;0.166;2022-07-23T14:12:59;24.00;1.00
15630;DHT22;7914;50.842;0.166;2022-07-23T14:15:26;24.20;1.00
15630;DHT22;7914;50.842;0.166;2022-07-23T14:17:53;24.20;99.90
15630;DHT22;7914;50.842;0.166;2022-07-23T14:20:19;24.10;99.90
15630;DHT22;7914;50.842;0.166;2022-07-23T14:22:45;24.00;99.90
15630;DHT22;7914;50.842;0.166;2022-07-23T14:25:11;24.00;99.90
15630;DHT22;7914;50.842;0.166;2022-07-23T14:27:37;24.10;99.90
15630;DHT22;7914;50.842;0.166;2022-07-23T14:30:07;24.10;99.90
15630;DHT22;7914;50.842;0.166;2022-07-23T14:32:33;24.10;99.90
15630;DHT22;7914;50.842;0.166;2022-07-23T14:34:59;24.00;99.90
15630;DHT22;7914;50.842;0.166;2022-07-23T14:37:25;23.90;99.90
15630;DHT22;7914;50.842;0.166;2022-07-23T14:39:51;23.90;99.90
15630;DHT22;7914;50.842;0.166;2022-07-23T14:42:18;23.90;99.90
15630;DHT22;7914;50.842;0.166;2022-07-23T14:44:44;23.90;99.90
15630;DHT22;7914;50.842;0.166;2022-07-23T14:47:10;23.90;99.90
15630;DHT22;7914;50.842;0.166;2022-07-23T14:49:36;23.90;99.90
15630;DHT22;7914;50.842;0.166;2022-07-23T14:52:03;24.00;99.90
15630;DHT22;7914;50.842;0.166;2022-07-23T14:54:30;24.00;99.90
15630;DHT22;7914;50.842;0.166;2022-07-23T14:56:57;24.00;99.90
15630;DHT22;7914;50.842;0.166;2022-07-23T14:59:23;24.00;99.90
15630;DHT22;7914;50.842;0.166;2022-07-23T15:01:49;24.00;99.90
15630;DHT22;7914;50.842;0.166;2022-07-23T15:04:15;24.00;99.90
15630;DHT22;7914;50.842;0.166;2022-07-23T15:06:41;24.00;99.90
15630;DHT22;7914;50.842;0.166;2022-07-23T15:09:06;24.00;90.90
15630;DHT22;7914;50.842;0.166;2022-07-23T15:11:32;24.00;99.90
15630;DHT22;7914;50.842;0.166;2022-07-23T15:14:03;24.00;29.50
15630;DHT22;7914;50.842;0.166;2022-07-23T15:16:29;24.00;1.00
15630;DHT22;7914;50.842;0.166;2022-07-23T15:18:55;24.00;1.00
15630;DHT22;7914;50.842;0.166;2022-07-23T15:21:22;24.00;91.80
15630;DHT22;7914;50.842;0.166;2022-07-23T15:23:48;24.20;99.90
15630;DHT22;7914;50.842;0.166;2022-07-23T15:26:14;24.10;99.90
15630;DHT22;7914;50.842;0.166;2022-07-23T15:28:41;24.10;99.90
15630;DHT22;7914;50.842;0.166;2022-07-23T15:31:07;24.00;99.90
15630;DHT22;7914;50.842;0.166;2022-07-23T15:33:33;23.90;99.90
15630;DHT22;7914;50.842;0.166;2022-07-23T15:35:59;23.80;1.00
15630;DHT22;7914;50.842;0.166;2022-07-23T15:38:25;23.70;1.00
15630;DHT22;7914;50.842;0.166;2022-07-23T15:40:53;23.60;99.90
15630;DHT22;7914;50.842;0.166;2022-07-23T15:43:19;23.50;99.90
15630;DHT22;7914;50.842;0.166;2022-07-23T15:45:45;23.60;1.00
15630;DHT22;7914;50.842;0.166;2022-07-23T15:48:12;23.60;1.00
15630;DHT22;7914;50.842;0.166;2022-07-23T15:50:38;23.60;99.90
15630;DHT22;7914;50.842;0.166;2022-07-23T15:53:03;23.60;1.00
15630;DHT22;7914;50.842;0.166;2022-07-23T15:55:29;23.60;1.00
15630;DHT22;7914;50.842;0.166;2022-07-23T15:57:56;23.50;99.90
15630;DHT22;7914;50.842;0.166;2022-07-23T16:00:22;23.50;1.00
15630;DHT22;7914;50.842;0.166;2022-07-23T16:02:47;23.50;1.00
15630;DHT22;7914;50.842;0.166;2022-07-23T16:05:13;23.50;99.90
15630;DHT22;7914;50.842;0.166;2022-07-23T16:07:39;23.40;1.00
15630;DHT22;7914;50.842;0.166;2022-07-23T16:10:06;23.30;99.90
15630;DHT22;7914;50.842;0.166;2022-07-23T16:12:32;23.40;99.90
15630;DHT22;7914;50.842;0.166;2022-07-23T16:14:57;23.30;1.00
15630;DHT22;7914;50.842;0.166;2022-07-23T16:17:23;23.30;1.00
15630;DHT22;7914;50.842;0.166;2022-07-23T16:19:49;23.20;1.00
15630;DHT22;7914;50.842;0.166;2022-07-23T16:22:14;23.20;1.00
15630;DHT22;7914;50.842;0.166;2022-07-23T16:24:42;23.10;1.00
15630;DHT22;7914;50.842;0.166;2022-07-23T16:27:08;23.00;1.00
15630;DHT22;7914;50.842;0.166;2022-07-23T16:29:35;22.90;44.30
15630;DHT22;7914;50.842;0.166;2022-07-23T16:32:00;22.90;99.90
15630;DHT22;7914;50.842;0.166;2022-07-23T16:34:26;22.80;99.90
15630;DHT22;7914;50.842;0.166;2022-07-23T16:36:52;22.80;99.90